sensor_id;sensor_type;location;lat;lon;timestamp;P1;durP1;ratioP1;P2;durP2;ratioP2
31126;SDS011;17775;57.948;12.514;2023-08-17T00:01:30;0.40;;;0.40;;
31126;SDS011;17775;57.948;12.514;2023-08-17T00:03:57;0.30;;;0.30;;
31126;SDS011;17775;57.948;12.514;2023-08-17T00:06:23;0.40;;;0.40;;
31126;SDS011;17775;57.948;12.514;2023-08-17T00:08:50;0.40;;;0.30;;
31126;SDS011;17775;57.948;12.514;2023-08-17T00:11:16;0.25;;;0.25;;
31126;SDS011;17775;57.948;12.514;2023-08-17T00:13:43;0.30;;;0.30;;
31126;SDS011;17775;57.948;12.514;2023-08-17T00:16:09;0.30;;;0.30;;
31126;SDS011;17775;57.948;12.514;2023-08-17T00:18:35;0.43;;;0.30;;
31126;SDS011;17775;57.948;12.514;2023-08-17T00:21:02;0.30;;;0.30;;
31126;SDS011;17775;57.948;12.514;2023-08-17T00:23:31;0.43;;;0.43;;
31126;SDS011;17775;57.948;12.514;2023-08-17T00:25:58;0.20;;;0.20;;
31126;SDS011;17775;57.948;12.514;2023-08-17T00:28:25;0.30;;;0.30;;
31126;SDS011;17775;57.948;12.514;2023-08-17T00:30:51;0.10;;;0.10;;
31126;SDS011;17775;57.948;12.514;2023-08-17T00:33:18;0.30;;;0.30;;
31126;SDS011;17775;57.948;12.514;2023-08-17T00:35:44;0.40;;;0.40;;
31126;SDS011;17775;57.948;12.514;2023-08-17T00:38:12;0.22;;;0.22;;
31126;SDS011;17775;57.948;12.514;2023-08-17T00:40:38;0.30;;;0.30;;
31126;SDS011;17775;57.948;12.514;2023-08-17T00:43:05;0.30;;;0.30;;
31126;SDS011;17775;57.948;12.514;2023-08-17T00:45:31;0.30;;;0.30;;
31126;SDS011;17775;57.948;12.514;2023-08-17T00:47:58;0.30;;;0.30;;
31126;SDS011;17775;57.948;12.514;2023-08-17T00:50:25;0.52;;;0.20;;
31126;SDS011;17775;57.948;12.514;2023-08-17T00:52:52;0.35;;;0.30;;
31126;SDS011;17775;57.948;12.514;2023-08-17T00:55:19;0.40;;;0.30;;
31126;SDS011;17775;57.948;12.514;2023-08-17T00:57:46;0.20;;;0.20;;
31126;SDS011;17775;57.948;12.514;2023-08-17T01:00:15;0.40;;;0.35;;
31126;SDS011;17775;57.948;12.514;2023-08-17T01:02:45;0.20;;;0.20;;
31126;SDS011;17775;57.948;12.514;2023-08-17T01:05:12;0.50;;;0.43;;
31126;SDS011;17775;57.948;12.514;2023-08-17T01:07:39;0.30;;;0.30;;
31126;SDS011;17775;57.948;12.514;2023-08-17T01:10:05;0.20;;;0.20;;
31126;SDS011;17775;57.948;12.514;2023-08-17T01:12:50;0.20;;;0.20;;
31126;SDS011;17775;57.948;12.514;2023-08-17T01:20:14;0.40;;;0.30;;
31126;SDS011;17775;57.948;12.514;2023-08-17T01:22:44;0.20;;;0.20;;
31126;SDS011;17775;57.948;12.514;2023-08-17T01:25:11;0.30;;;0.30;;
31126;SDS011;17775;57.948;12.514;2023-08-17T01:27:40;0.28;;;0.28;;
31126;SDS011;17775;57.948;12.514;2023-08-17T01:30:07;0.40;;;0.30;;
31126;SDS011;17775;57.948;12.514;2023-08-17T01:32:37;0.40;;;0.30;;
31126;SDS011;17775;57.948;12.514;2023-08-17T01:37:52;0.73;;;0.30;;
31126;SDS011;17775;57.948;12.514;2023-08-17T01:40:19;0.32;;;0.30;;
31126;SDS011;17775;57.948;12.514;2023-08-17T01:42:46;0.35;;;0.30;;
31126;SDS011;17775;57.948;12.514;2023-08-17T01:45:14;0.40;;;0.40;;
31126;SDS011;17775;57.948;12.514;2023-08-17T01:47:40;0.30;;;0.30;;
31126;SDS011;17775;57.948;12.514;2023-08-17T01:50:07;0.43;;;0.30;;
31126;SDS011;17775;57.948;12.514;2023-08-17T01:52:33;0.20;;;0.20;;
31126;SDS011;17775;57.948;12.514;2023-08-17T01:55:01;0.25;;;0.25;;
31126;SDS011;17775;57.948;12.514;2023-08-17T01:57:27;0.20;;;0.20;;
31126;SDS011;17775;57.948;12.514;2023-08-17T01:59:54;0.25;;;0.25;;
31126;SDS011;17775;57.948;12.514;2023-08-17T02:02:20;0.93;;;0.30;;
31126;SDS011;17775;57.948;12.514;2023-08-17T02:04:48;0.40;;;0.30;;
31126;SDS011;17775;57.948;12.514;2023-08-17T02:07:14;0.30;;;0.30;;
31126;SDS011;17775;57.948;12.514;2023-08-17T02:09:40;0.20;;;0.20;;
31126;SDS011;17775;57.948;12.514;2023-08-17T02:12:07;0.25;;;0.25;;
31126;SDS011;17775;57.948;12.514;2023-08-17T02:14:34;0.57;;;0.30;;
31126;SDS011;17775;57.948;12.514;2023-08-17T02:17:01;0.30;;;0.30;;
31126;SDS011;17775;57.948;12.514;2023-08-17T02:19:29;0.40;;;0.30;;
31126;SDS011;17775;57.948;12.514;2023-08-17T02:21:56;0.30;;;0.30;;
31126;SDS011;17775;57.948;12.514;2023-08-17T02:24:22;0.40;;;0.30;;
31126;SDS011;17775;57.948;12.514;2023-08-17T02:26:49;0.52;;;0.30;;
31126;SDS011;17775;57.948;12.514;2023-08-17T02:29:15;0.55;;;0.40;;
31126;SDS011;17775;57.948;12.514;2023-08-17T02:31:42;0.30;;;0.30;;
31126;SDS011;17775;57.948;12.514;2023-08-17T02:34:08;0.30;;;0.30;;
31126;SDS011;17775;57.948;12.514;2023-08-17T02:36:35;0.60;;;0.30;;
31126;SDS011;17775;57.948;12.514;2023-08-17T02:39:02;0.30;;;0.30;;
31126;SDS011;17775;57.948;12.514;2023-08-17T02:41:29;0.40;;;0.40;;
31126;SDS011;17775;57.948;12.514;2023-08-17T02:43:58;0.30;;;0.30;;
31126;SDS011;17775;57.948;12.514;2023-08-17T02:46:24;0.30;;;0.30;;
31126;SDS011;17775;57.948;12.514;2023-08-17T02:48:51;0.20;;;0.20;;
31126;SDS011;17775;57.948;12.514;2023-08-17T02:51:17;0.30;;;0.30;;
31126;SDS011;17775;57.948;12.514;2023-08-17T02:53:44;0.30;;;0.30;;
31126;SDS011;17775;57.948;12.514;2023-08-17T02:56:10;0.43;;;0.43;;
31126;SDS011;17775;57.948;12.514;2023-08-17T02:58:38;0.40;;;0.30;;
31126;SDS011;17775;57.948;12.514;2023-08-17T03:01:08;0.50;;;0.40;;
31126;SDS011;17775;57.948;12.514;2023-08-17T03:03:34;0.30;;;0.30;;
31126;SDS011;17775;57.948;12.514;2023-08-17T03:06:02;0.20;;;0.20;;
31126;SDS011;17775;57.948;12.514;2023-08-17T03:08:28;0.40;;;0.38;;
31126;SDS011;17775;57.948;12.514;2023-08-17T03:10:55;0.20;;;0.20;;
31126;SDS011;17775;57.948;12.514;2023-08-17T03:13:21;0.30;;;0.30;;
31126;SDS011;17775;57.948;12.514;2023-08-17T03:15:47;0.20;;;0.20;;
31126;SDS011;17775;57.948;12.514;2023-08-17T03:18:14;0.20;;;0.20;;
31126;SDS011;17775;57.948;12.514;2023-08-17T03:20:40;0.30;;;0.30;;
31126;SDS011;17775;57.948;12.514;2023-08-17T03:23:07;0.20;;;0.20;;
31126;SDS011;17775;57.948;12.514;2023-08-17T03:25:34;0.20;;;0.20;;
31126;SDS011;17775;57.948;12.514;2023-08-17T03:28:01;0.20;;;0.20;;
31126;SDS011;17775;57.948;12.514;2023-08-17T03:30:27;0.30;;;0.30;;
31126;SDS011;17775;57.948;12.514;2023-08-17T03:32:54;0.40;;;0.40;;
31126;SDS011;17775;57.948;12.514;2023-08-17T03:35:20;0.20;;;0.20;;
31126;SDS011;17775;57.948;12.514;2023-08-17T03:37:46;0.20;;;0.20;;
31126;SDS011;17775;57.948;12.514;2023-08-17T03:40:13;0.30;;;0.30;;
31126;SDS011;17775;57.948;12.514;2023-08-17T03:42:39;0.20;;;0.20;;
31126;SDS011;17775;57.948;12.514;2023-08-17T03:45:07;0.20;;;0.20;;
31126;SDS011;17775;57.948;12.514;2023-08-17T03:47:34;0.77;;;0.30;;
31126;SDS011;17775;57.948;12.514;2023-08-17T03:50:00;0.30;;;0.30;;
31126;SDS011;17775;57.948;12.514;2023-08-17T03:52:27;0.32;;;0.30;;
31126;SDS011;17775;57.948;12.514;2023-08-17T03:54:53;0.45;;;0.45;;
31126;SDS011;17775;57.948;12.514;2023-08-17T03:57:20;0.30;;;0.30;;
31126;SDS011;17775;57.948;12.514;2023-08-17T03:59:46;0.30;;;0.30;;
31126;SDS011;17775;57.948;12.514;2023-08-17T04:02:13;0.38;;;0.30;;
31126;SDS011;17775;57.948;12.514;2023-08-17T04:04:39;0.35;;;0.30;;
31126;SDS011;17775;57.948;12.514;2023-08-17T04:07:06;0.20;;;0.20;;
31126;SDS011;17775;57.948;12.514;2023-08-17T04:09:33;0.20;;;0.20;;
31126;SDS011;17775;57.948;12.514;2023-08-17T04:12:00;0.30;;;0.30;;
31126;SDS011;17775;57.948;12.514;2023-08-17T04:14:26;0.20;;;0.20;;
31126;SDS011;17775;57.948;12.514;2023-08-17T04:16:53;0.20;;;0.20;;
31126;SDS011;17775;57.948;12.514;2023-08-17T04:19:19;0.50;;;0.45;;
31126;SDS011;17775;57.948;12.514;2023-08-17T04:21:46;0.30;;;0.30;;
31126;SDS011;17775;57.948;12.514;2023-08-17T04:24:12;0.20;;;0.20;;
31126;SDS011;17775;57.948;12.514;2023-08-17T04:26:39;0.20;;;0.20;;
31126;SDS011;17775;57.948;12.514;2023-08-17T04:29:05;0.30;;;0.30;;
31126;SDS011;17775;57.948;12.514;2023-08-17T04:31:32;0.43;;;0.32;;
31126;SDS011;17775;57.948;12.514;2023-08-17T04:33:58;0.20;;;0.20;;
31126;SDS011;17775;57.948;12.514;2023-08-17T04:36:25;0.30;;;0.30;;
31126;SDS011;17775;57.948;12.514;2023-08-17T04:38:52;0.20;;;0.20;;
31126;SDS011;17775;57.948;12.514;2023-08-17T04:41:18;0.43;;;0.30;;
31126;SDS011;17775;57.948;12.514;2023-08-17T04:43:44;0.45;;;0.35;;
31126;SDS011;17775;57.948;12.514;2023-08-17T04:46:12;0.20;;;0.20;;
31126;SDS011;17775;57.948;12.514;2023-08-17T04:48:39;0.20;;;0.20;;
31126;SDS011;17775;57.948;12.514;2023-08-17T04:51:06;0.20;;;0.20;;
31126;SDS011;17775;57.948;12.514;2023-08-17T04:53:32;0.22;;;0.20;;
31126;SDS011;17775;57.948;12.514;2023-08-17T04:55:59;0.28;;;0.28;;
31126;SDS011;17775;57.948;12.514;2023-08-17T04:58:27;0.50;;;0.30;;
31126;SDS011;17775;57.948;12.514;2023-08-17T05:00:54;0.22;;;0.22;;
31126;SDS011;17775;57.948;12.514;2023-08-17T05:03:20;0.30;;;0.30;;
31126;SDS011;17775;57.948;12.514;2023-08-17T05:05:58;0.52;;;0.22;;
31126;SDS011;17775;57.948;12.514;2023-08-17T05:08:25;0.40;;;0.30;;
31126;SDS011;17775;57.948;12.514;2023-08-17T05:10:51;0.45;;;0.30;;
31126;SDS011;17775;57.948;12.514;2023-08-17T05:13:18;0.30;;;0.30;;
31126;SDS011;17775;57.948;12.514;2023-08-17T05:15:44;0.28;;;0.28;;
31126;SDS011;17775;57.948;12.514;2023-08-17T05:18:10;0.20;;;0.20;;
31126;SDS011;17775;57.948;12.514;2023-08-17T05:20:37;0.57;;;0.35;;
31126;SDS011;17775;57.948;12.514;2023-08-17T05:23:03;0.43;;;0.30;;
31126;SDS011;17775;57.948;12.514;2023-08-17T05:25:30;0.20;;;0.20;;
31126;SDS011;17775;57.948;12.514;2023-08-17T05:27:56;0.30;;;0.30;;
31126;SDS011;17775;57.948;12.514;2023-08-17T05:30:23;0.30;;;0.30;;
31126;SDS011;17775;57.948;12.514;2023-08-17T05:32:49;0.22;;;0.22;;
31126;SDS011;17775;57.948;12.514;2023-08-17T05:35:16;0.20;;;0.20;;
31126;SDS011;17775;57.948;12.514;2023-08-17T05:37:43;0.30;;;0.30;;
31126;SDS011;17775;57.948;12.514;2023-08-17T05:40:09;0.82;;;0.30;;
31126;SDS011;17775;57.948;12.514;2023-08-17T05:42:36;0.30;;;0.30;;
31126;SDS011;17775;57.948;12.514;2023-08-17T05:45:03;0.30;;;0.30;;
31126;SDS011;17775;57.948;12.514;2023-08-17T05:47:30;0.28;;;0.22;;
31126;SDS011;17775;57.948;12.514;2023-08-17T05:49:56;0.70;;;0.30;;
31126;SDS011;17775;57.948;12.514;2023-08-17T05:52:23;0.32;;;0.28;;
31126;SDS011;17775;57.948;12.514;2023-08-17T05:54:49;0.20;;;0.20;;
31126;SDS011;17775;57.948;12.514;2023-08-17T05:57:16;1.75;;;0.20;;
31126;SDS011;17775;57.948;12.514;2023-08-17T05:59:42;0.30;;;0.30;;
31126;SDS011;17775;57.948;12.514;2023-08-17T06:02:08;0.30;;;0.30;;
31126;SDS011;17775;57.948;12.514;2023-08-17T06:04:35;0.30;;;0.30;;
31126;SDS011;17775;57.948;12.514;2023-08-17T06:07:02;0.30;;;0.30;;
31126;SDS011;17775;57.948;12.514;2023-08-17T06:09:28;0.52;;;0.40;;
31126;SDS011;17775;57.948;12.514;2023-08-17T06:11:54;0.30;;;0.30;;
31126;SDS011;17775;57.948;12.514;2023-08-17T06:14:21;0.30;;;0.30;;
31126;SDS011;17775;57.948;12.514;2023-08-17T06:16:48;0.40;;;0.35;;
31126;SDS011;17775;57.948;12.514;2023-08-17T06:19:15;0.20;;;0.20;;
31126;SDS011;17775;57.948;12.514;2023-08-17T06:21:42;0.30;;;0.30;;
31126;SDS011;17775;57.948;12.514;2023-08-17T06:24:08;0.30;;;0.30;;
31126;SDS011;17775;57.948;12.514;2023-08-17T06:26:34;0.25;;;0.25;;
31126;SDS011;17775;57.948;12.514;2023-08-17T06:29:01;0.35;;;0.35;;
31126;SDS011;17775;57.948;12.514;2023-08-17T06:31:30;0.65;;;0.30;;
31126;SDS011;17775;57.948;12.514;2023-08-17T06:33:56;0.52;;;0.40;;
31126;SDS011;17775;57.948;12.514;2023-08-17T06:36:23;0.30;;;0.30;;
31126;SDS011;17775;57.948;12.514;2023-08-17T06:38:49;0.47;;;0.40;;
31126;SDS011;17775;57.948;12.514;2023-08-17T06:41:16;0.30;;;0.30;;
31126;SDS011;17775;57.948;12.514;2023-08-17T06:43:43;0.40;;;0.30;;
31126;SDS011;17775;57.948;12.514;2023-08-17T06:46:09;0.30;;;0.30;;
31126;SDS011;17775;57.948;12.514;2023-08-17T06:48:36;0.40;;;0.38;;
31126;SDS011;17775;57.948;12.514;2023-08-17T06:51:02;0.45;;;0.40;;
31126;SDS011;17775;57.948;12.514;2023-08-17T06:53:31;0.93;;;0.52;;
31126;SDS011;17775;57.948;12.514;2023-08-17T06:55:57;0.90;;;0.45;;
31126;SDS011;17775;57.948;12.514;2023-08-17T06:58:27;0.40;;;0.40;;
31126;SDS011;17775;57.948;12.514;2023-08-17T07:00:54;0.60;;;0.40;;
31126;SDS011;17775;57.948;12.514;2023-08-17T07:03:20;0.30;;;0.30;;
31126;SDS011;17775;57.948;12.514;2023-08-17T07:05:47;0.73;;;0.50;;
31126;SDS011;17775;57.948;12.514;2023-08-17T07:08:14;0.40;;;0.40;;
31126;SDS011;17775;57.948;12.514;2023-08-17T07:10:40;1.50;;;0.50;;
31126;SDS011;17775;57.948;12.514;2023-08-17T07:13:07;0.50;;;0.40;;
31126;SDS011;17775;57.948;12.514;2023-08-17T07:15:33;0.60;;;0.47;;
31126;SDS011;17775;57.948;12.514;2023-08-17T07:18:00;1.30;;;0.80;;
31126;SDS011;17775;57.948;12.514;2023-08-17T07:20:26;1.40;;;0.73;;
31126;SDS011;17775;57.948;12.514;2023-08-17T07:22:53;0.95;;;0.60;;
31126;SDS011;17775;57.948;12.514;2023-08-17T07:25:19;1.15;;;0.65;;
31126;SDS011;17775;57.948;12.514;2023-08-17T07:27:49;1.27;;;0.60;;
31126;SDS011;17775;57.948;12.514;2023-08-17T07:30:15;1.20;;;0.65;;
31126;SDS011;17775;57.948;12.514;2023-08-17T07:32:42;1.15;;;0.80;;
31126;SDS011;17775;57.948;12.514;2023-08-17T07:35:08;0.80;;;0.50;;
31126;SDS011;17775;57.948;12.514;2023-08-17T07:37:35;1.30;;;0.50;;
31126;SDS011;17775;57.948;12.514;2023-08-17T07:40:01;0.90;;;0.60;;
31126;SDS011;17775;57.948;12.514;2023-08-17T07:42:31;0.68;;;0.43;;
31126;SDS011;17775;57.948;12.514;2023-08-17T07:45:01;0.85;;;0.63;;
31126;SDS011;17775;57.948;12.514;2023-08-17T07:47:29;0.50;;;0.45;;
31126;SDS011;17775;57.948;12.514;2023-08-17T07:49:56;0.50;;;0.50;;
31126;SDS011;17775;57.948;12.514;2023-08-17T07:52:24;0.55;;;0.47;;
31126;SDS011;17775;57.948;12.514;2023-08-17T07:54:50;0.60;;;0.50;;
31126;SDS011;17775;57.948;12.514;2023-08-17T07:57:16;0.50;;;0.40;;
31126;SDS011;17775;57.948;12.514;2023-08-17T07:59:43;1.77;;;0.63;;
31126;SDS011;17775;57.948;12.514;2023-08-17T08:02:09;1.05;;;0.60;;
31126;SDS011;17775;57.948;12.514;2023-08-17T08:04:36;0.68;;;0.50;;
31126;SDS011;17775;57.948;12.514;2023-08-17T08:07:02;0.65;;;0.60;;
31126;SDS011;17775;57.948;12.514;2023-08-17T08:09:29;1.30;;;0.70;;
31126;SDS011;17775;57.948;12.514;2023-08-17T08:11:55;1.52;;;0.70;;
31126;SDS011;17775;57.948;12.514;2023-08-17T08:14:22;0.95;;;0.68;;
31126;SDS011;17775;57.948;12.514;2023-08-17T08:16:48;0.68;;;0.60;;
31126;SDS011;17775;57.948;12.514;2023-08-17T08:19:15;0.88;;;0.70;;
31126;SDS011;17775;57.948;12.514;2023-08-17T08:21:41;1.52;;;0.70;;
31126;SDS011;17775;57.948;12.514;2023-08-17T08:24:08;1.42;;;0.80;;
31126;SDS011;17775;57.948;12.514;2023-08-17T08:26:47;0.63;;;0.60;;
31126;SDS011;17775;57.948;12.514;2023-08-17T08:29:14;0.77;;;0.68;;
31126;SDS011;17775;57.948;12.514;2023-08-17T08:31:40;0.73;;;0.60;;
31126;SDS011;17775;57.948;12.514;2023-08-17T08:34:07;1.60;;;0.80;;
31126;SDS011;17775;57.948;12.514;2023-08-17T08:36:33;0.70;;;0.60;;
31126;SDS011;17775;57.948;12.514;2023-08-17T08:39:00;1.35;;;0.90;;
31126;SDS011;17775;57.948;12.514;2023-08-17T08:41:26;1.25;;;0.80;;
31126;SDS011;17775;57.948;12.514;2023-08-17T08:43:54;1.17;;;0.73;;
31126;SDS011;17775;57.948;12.514;2023-08-17T08:46:21;1.20;;;0.90;;
31126;SDS011;17775;57.948;12.514;2023-08-17T08:48:49;1.27;;;1.13;;
31126;SDS011;17775;57.948;12.514;2023-08-17T08:51:17;1.52;;;0.90;;
31126;SDS011;17775;57.948;12.514;2023-08-17T08:53:47;0.93;;;0.70;;
31126;SDS011;17775;57.948;12.514;2023-08-17T08:56:17;1.00;;;0.70;;
31126;SDS011;17775;57.948;12.514;2023-08-17T08:58:45;2.10;;;1.10;;
31126;SDS011;17775;57.948;12.514;2023-08-17T09:01:13;1.05;;;0.85;;
31126;SDS011;17775;57.948;12.514;2023-08-17T09:03:40;1.15;;;1.05;;
31126;SDS011;17775;57.948;12.514;2023-08-17T09:06:07;1.35;;;1.10;;
31126;SDS011;17775;57.948;12.514;2023-08-17T09:08:35;1.70;;;1.10;;
31126;SDS011;17775;57.948;12.514;2023-08-17T09:11:02;0.90;;;0.77;;
31126;SDS011;17775;57.948;12.514;2023-08-17T09:13:29;0.90;;;0.77;;
31126;SDS011;17775;57.948;12.514;2023-08-17T09:15:56;1.05;;;0.88;;
31126;SDS011;17775;57.948;12.514;2023-08-17T09:18:24;0.68;;;0.68;;
31126;SDS011;17775;57.948;12.514;2023-08-17T09:20:51;0.63;;;0.52;;
31126;SDS011;17775;57.948;12.514;2023-08-17T09:23:18;1.20;;;0.82;;
31126;SDS011;17775;57.948;12.514;2023-08-17T09:25:48;1.03;;;0.77;;
31126;SDS011;17775;57.948;12.514;2023-08-17T09:28:16;1.00;;;0.75;;
31126;SDS011;17775;57.948;12.514;2023-08-17T09:31:05;1.00;;;0.90;;
31126;SDS011;17775;57.948;12.514;2023-08-17T09:33:30;1.25;;;0.80;;
31126;SDS011;17775;57.948;12.514;2023-08-17T09:35:58;0.70;;;0.52;;
31126;SDS011;17775;57.948;12.514;2023-08-17T09:38:26;0.52;;;0.52;;
31126;SDS011;17775;57.948;12.514;2023-08-17T09:40:54;1.23;;;0.55;;
31126;SDS011;17775;57.948;12.514;2023-08-17T09:43:20;0.90;;;0.50;;
31126;SDS011;17775;57.948;12.514;2023-08-17T09:45:47;1.05;;;0.70;;
31126;SDS011;17775;57.948;12.514;2023-08-17T09:48:16;0.47;;;0.47;;
31126;SDS011;17775;57.948;12.514;2023-08-17T09:50:44;0.80;;;0.70;;
31126;SDS011;17775;57.948;12.514;2023-08-17T09:53:17;0.70;;;0.60;;
31126;SDS011;17775;57.948;12.514;2023-08-17T09:55:45;1.10;;;0.68;;
31126;SDS011;17775;57.948;12.514;2023-08-17T09:58:13;1.00;;;0.60;;
31126;SDS011;17775;57.948;12.514;2023-08-17T10:00:43;0.77;;;0.60;;
31126;SDS011;17775;57.948;12.514;2023-08-17T10:03:16;1.00;;;0.73;;
31126;SDS011;17775;57.948;12.514;2023-08-17T10:05:44;1.00;;;0.75;;
31126;SDS011;17775;57.948;12.514;2023-08-17T10:08:11;1.30;;;0.80;;
31126;SDS011;17775;57.948;12.514;2023-08-17T10:10:38;0.93;;;0.70;;
31126;SDS011;17775;57.948;12.514;2023-08-17T10:15:36;0.85;;;0.75;;
31126;SDS011;17775;57.948;12.514;2023-08-17T10:20:42;0.75;;;0.65;;
31126;SDS011;17775;57.948;12.514;2023-08-17T10:23:15;0.90;;;0.70;;
31126;SDS011;17775;57.948;12.514;2023-08-17T10:25:42;1.42;;;0.88;;
31126;SDS011;17775;57.948;12.514;2023-08-17T10:28:09;1.08;;;0.85;;
31126;SDS011;17775;57.948;12.514;2023-08-17T10:30:39;0.98;;;0.85;;
31126;SDS011;17775;57.948;12.514;2023-08-17T10:33:05;1.20;;;0.80;;
31126;SDS011;17775;57.948;12.514;2023-08-17T10:35:33;1.00;;;0.80;;
31126;SDS011;17775;57.948;12.514;2023-08-17T10:37:59;1.30;;;0.70;;
31126;SDS011;17775;57.948;12.514;2023-08-17T10:40:34;1.13;;;0.90;;
31126;SDS011;17775;57.948;12.514;2023-08-17T10:43:00;0.77;;;0.63;;
31126;SDS011;17775;57.948;12.514;2023-08-17T10:50:33;0.73;;;0.70;;
31126;SDS011;17775;57.948;12.514;2023-08-17T10:53:04;1.20;;;0.70;;
31126;SDS011;17775;57.948;12.514;2023-08-17T10:55:35;1.90;;;1.02;;
31126;SDS011;17775;57.948;12.514;2023-08-17T10:58:01;1.67;;;0.90;;
31126;SDS011;17775;57.948;12.514;2023-08-17T11:00:37;2.13;;;1.00;;
31126;SDS011;17775;57.948;12.514;2023-08-17T11:03:38;1.50;;;0.90;;
31126;SDS011;17775;57.948;12.514;2023-08-17T11:05:57;1.10;;;0.90;;
31126;SDS011;17775;57.948;12.514;2023-08-17T11:08:34;1.15;;;0.95;;
31126;SDS011;17775;57.948;12.514;2023-08-17T11:11:11;1.20;;;0.80;;
31126;SDS011;17775;57.948;12.514;2023-08-17T11:13:38;0.90;;;0.80;;
31126;SDS011;17775;57.948;12.514;2023-08-17T11:16:05;1.00;;;0.82;;
31126;SDS011;17775;57.948;12.514;2023-08-17T11:18:33;1.08;;;0.80;;
31126;SDS011;17775;57.948;12.514;2023-08-17T11:21:00;1.90;;;1.08;;
31126;SDS011;17775;57.948;12.514;2023-08-17T11:23:28;1.73;;;1.00;;
31126;SDS011;17775;57.948;12.514;2023-08-17T11:25:55;1.50;;;1.20;;
31126;SDS011;17775;57.948;12.514;2023-08-17T11:28:24;1.00;;;0.82;;
31126;SDS011;17775;57.948;12.514;2023-08-17T11:31:00;1.00;;;0.75;;
31126;SDS011;17775;57.948;12.514;2023-08-17T11:33:28;0.80;;;0.60;;
31126;SDS011;17775;57.948;12.514;2023-08-17T11:35:55;0.90;;;0.70;;
31126;SDS011;17775;57.948;12.514;2023-08-17T11:38:32;0.60;;;0.60;;
31126;SDS011;17775;57.948;12.514;2023-08-17T11:40:59;0.60;;;0.60;;
31126;SDS011;17775;57.948;12.514;2023-08-17T11:43:26;0.70;;;0.70;;
31126;SDS011;17775;57.948;12.514;2023-08-17T11:45:54;0.85;;;0.63;;
31126;SDS011;17775;57.948;12.514;2023-08-17T11:48:21;0.50;;;0.50;;
31126;SDS011;17775;57.948;12.514;2023-08-17T11:50:47;0.80;;;0.60;;
31126;SDS011;17775;57.948;12.514;2023-08-17T11:53:14;0.75;;;0.63;;
31126;SDS011;17775;57.948;12.514;2023-08-17T11:55:41;0.60;;;0.50;;
31126;SDS011;17775;57.948;12.514;2023-08-17T11:58:07;0.50;;;0.50;;
31126;SDS011;17775;57.948;12.514;2023-08-17T12:00:36;0.50;;;0.50;;
31126;SDS011;17775;57.948;12.514;2023-08-17T12:03:03;0.57;;;0.50;;
31126;SDS011;17775;57.948;12.514;2023-08-17T12:05:31;0.85;;;0.57;;
31126;SDS011;17775;57.948;12.514;2023-08-17T12:08:01;0.77;;;0.65;;
31126;SDS011;17775;57.948;12.514;2023-08-17T12:10:28;0.80;;;0.63;;
31126;SDS011;17775;57.948;12.514;2023-08-17T12:12:57;0.60;;;0.60;;
31126;SDS011;17775;57.948;12.514;2023-08-17T12:15:23;0.70;;;0.60;;
31126;SDS011;17775;57.948;12.514;2023-08-17T12:17:51;1.10;;;0.75;;
31126;SDS011;17775;57.948;12.514;2023-08-17T12:20:19;0.93;;;0.80;;
31126;SDS011;17775;57.948;12.514;2023-08-17T12:22:46;0.80;;;0.77;;
31126;SDS011;17775;57.948;12.514;2023-08-17T12:25:13;0.70;;;0.70;;
31126;SDS011;17775;57.948;12.514;2023-08-17T12:27:40;1.38;;;0.90;;
31126;SDS011;17775;57.948;12.514;2023-08-17T12:32:52;1.00;;;0.80;;
31126;SDS011;17775;57.948;12.514;2023-08-17T12:35:21;0.88;;;0.70;;
31126;SDS011;17775;57.948;12.514;2023-08-17T12:37:53;1.05;;;0.80;;
31126;SDS011;17775;57.948;12.514;2023-08-17T12:40:21;1.13;;;0.80;;
31126;SDS011;17775;57.948;12.514;2023-08-17T12:42:48;1.02;;;0.73;;
31126;SDS011;17775;57.948;12.514;2023-08-17T12:45:15;1.02;;;0.68;;
31126;SDS011;17775;57.948;12.514;2023-08-17T12:47:41;0.70;;;0.60;;
31126;SDS011;17775;57.948;12.514;2023-08-17T12:50:08;0.77;;;0.70;;
31126;SDS011;17775;57.948;12.514;2023-08-17T12:52:35;1.15;;;0.80;;
31126;SDS011;17775;57.948;12.514;2023-08-17T12:55:01;1.20;;;0.77;;
31126;SDS011;17775;57.948;12.514;2023-08-17T12:57:28;1.58;;;0.80;;
31126;SDS011;17775;57.948;12.514;2023-08-17T12:59:54;0.70;;;0.60;;
31126;SDS011;17775;57.948;12.514;2023-08-17T13:02:21;1.13;;;0.80;;
31126;SDS011;17775;57.948;12.514;2023-08-17T13:04:47;0.90;;;0.70;;
31126;SDS011;17775;57.948;12.514;2023-08-17T13:07:14;0.60;;;0.60;;
31126;SDS011;17775;57.948;12.514;2023-08-17T13:09:42;1.25;;;0.80;;
31126;SDS011;17775;57.948;12.514;2023-08-17T13:12:08;0.85;;;0.70;;
31126;SDS011;17775;57.948;12.514;2023-08-17T13:14:34;0.70;;;0.60;;
31126;SDS011;17775;57.948;12.514;2023-08-17T13:17:01;0.63;;;0.60;;
31126;SDS011;17775;57.948;12.514;2023-08-17T13:19:27;0.80;;;0.80;;
31126;SDS011;17775;57.948;12.514;2023-08-17T13:21:54;1.05;;;0.80;;
31126;SDS011;17775;57.948;12.514;2023-08-17T13:24:20;1.00;;;0.75;;
31126;SDS011;17775;57.948;12.514;2023-08-17T13:26:47;0.70;;;0.70;;
31126;SDS011;17775;57.948;12.514;2023-08-17T13:29:13;0.80;;;0.55;;
31126;SDS011;17775;57.948;12.514;2023-08-17T13:31:40;0.90;;;0.60;;
31126;SDS011;17775;57.948;12.514;2023-08-17T13:34:06;0.80;;;0.80;;
31126;SDS011;17775;57.948;12.514;2023-08-17T13:36:33;0.98;;;0.70;;
31126;SDS011;17775;57.948;12.514;2023-08-17T13:38:59;0.63;;;0.60;;
31126;SDS011;17775;57.948;12.514;2023-08-17T13:41:25;1.45;;;0.70;;
31126;SDS011;17775;57.948;12.514;2023-08-17T13:43:52;0.90;;;0.70;;
31126;SDS011;17775;57.948;12.514;2023-08-17T13:46:19;1.52;;;1.10;;
31126;SDS011;17775;57.948;12.514;2023-08-17T13:48:45;1.35;;;0.80;;
31126;SDS011;17775;57.948;12.514;2023-08-17T13:51:12;1.30;;;1.00;;
31126;SDS011;17775;57.948;12.514;2023-08-17T13:53:38;1.23;;;0.80;;
31126;SDS011;17775;57.948;12.514;2023-08-17T13:56:05;1.30;;;0.82;;
31126;SDS011;17775;57.948;12.514;2023-08-17T13:58:31;0.70;;;0.70;;
31126;SDS011;17775;57.948;12.514;2023-08-17T14:00:58;1.00;;;0.68;;
31126;SDS011;17775;57.948;12.514;2023-08-17T14:03:24;0.70;;;0.70;;
31126;SDS011;17775;57.948;12.514;2023-08-17T14:05:51;1.45;;;0.88;;
31126;SDS011;17775;57.948;12.514;2023-08-17T14:08:18;1.05;;;0.65;;
31126;SDS011;17775;57.948;12.514;2023-08-17T14:10:44;0.75;;;0.70;;
31126;SDS011;17775;57.948;12.514;2023-08-17T14:13:11;0.80;;;0.80;;
31126;SDS011;17775;57.948;12.514;2023-08-17T14:15:37;0.82;;;0.70;;
31126;SDS011;17775;57.948;12.514;2023-08-17T14:18:04;0.90;;;0.80;;
31126;SDS011;17775;57.948;12.514;2023-08-17T14:20:30;0.80;;;0.70;;
31126;SDS011;17775;57.948;12.514;2023-08-17T14:22:57;0.70;;;0.70;;
31126;SDS011;17775;57.948;12.514;2023-08-17T14:25:23;0.73;;;0.70;;
31126;SDS011;17775;57.948;12.514;2023-08-17T14:27:50;0.70;;;0.60;;
31126;SDS011;17775;57.948;12.514;2023-08-17T14:30:16;0.55;;;0.50;;
31126;SDS011;17775;57.948;12.514;2023-08-17T14:32:43;0.98;;;0.80;;
31126;SDS011;17775;57.948;12.514;2023-08-17T14:35:09;0.95;;;0.75;;
31126;SDS011;17775;57.948;12.514;2023-08-17T14:37:38;0.85;;;0.85;;
31126;SDS011;17775;57.948;12.514;2023-08-17T14:40:04;0.82;;;0.70;;
31126;SDS011;17775;57.948;12.514;2023-08-17T14:42:31;0.90;;;0.68;;
31126;SDS011;17775;57.948;12.514;2023-08-17T14:44:57;0.65;;;0.65;;
31126;SDS011;17775;57.948;12.514;2023-08-17T14:47:24;1.02;;;0.90;;
31126;SDS011;17775;57.948;12.514;2023-08-17T14:49:51;1.00;;;0.90;;
31126;SDS011;17775;57.948;12.514;2023-08-17T14:52:19;0.65;;;0.60;;
31126;SDS011;17775;57.948;12.514;2023-08-17T14:54:46;0.98;;;0.70;;